createdAt,value
2023-01-19T00:01:29.416Z,19.45
2023-01-19T00:03:58.066Z,19.64
2023-01-19T00:06:26.305Z,19.26
2023-01-19T00:08:54.462Z,19.43
2023-01-19T00:11:22.402Z,19.44
2023-01-19T00:13:51.077Z,19.13
2023-01-19T00:16:23.274Z,19.14
2023-01-19T00:18:52.800Z,19.26
2023-01-19T00:21:22.481Z,19.27
2023-01-19T00:23:52.622Z,19.63
2023-01-19T00:26:23.104Z,19.65
2023-01-19T00:28:51.267Z,19.54
2023-01-19T00:31:21.805Z,19.12
2023-01-19T00:33:52.722Z,19.12
2023-01-19T00:36:21.125Z,19.51
2023-01-19T00:38:49.158Z,19.58
2023-01-19T00:41:17.595Z,19.12
2023-01-19T00:43:44.764Z,19.54
2023-01-19T00:46:12.845Z,19.32
2023-01-19T00:48:42.143Z,18.94
2023-01-19T00:51:10.185Z,19.42
2023-01-19T00:53:38.062Z,19.26
2023-01-19T00:56:06.657Z,19.44
2023-01-19T00:58:34.614Z,19.15
2023-01-19T01:01:04.807Z,19.46
2023-01-19T01:03:33.608Z,19.38
2023-01-19T01:06:03.723Z,19.12
2023-01-19T01:08:32.003Z,19.42
2023-01-19T01:11:00.013Z,19.48
2023-01-19T01:13:29.325Z,19.01
2023-01-19T01:15:58.009Z,19.10
2023-01-19T01:18:26.293Z,19.35
2023-01-19T01:20:56.239Z,19.30
2023-01-19T01:23:25.851Z,19.10
2023-01-19T01:25:53.854Z,19.25
2023-01-19T01:28:21.855Z,19.42
2023-01-19T01:30:53.880Z,19.05
2023-01-19T01:33:39.777Z,19.18
2023-01-19T01:36:09.267Z,19.32
2023-01-19T01:38:38.737Z,19.21
2023-01-19T01:41:07.069Z,19.52
2023-01-19T01:43:46.817Z,19.12
2023-01-19T01:46:17.291Z,19.27
2023-01-19T01:48:52.448Z,19.55
2023-01-19T01:51:26.517Z,19.24
2023-01-19T01:54:09.570Z,19.57
2023-01-19T01:56:39.947Z,19.74
2023-01-19T01:59:10.718Z,19.34
2023-01-19T02:01:56.232Z,19.86
2023-01-19T02:04:25.170Z,19.65
2023-01-19T02:07:11.051Z,19.76
2023-01-19T02:09:57.603Z,19.81
2023-01-19T02:12:43.771Z,19.64
2023-01-19T02:15:17.469Z,19.58
2023-01-19T02:17:45.636Z,19.85
2023-01-19T02:20:14.276Z,19.74
2023-01-19T02:22:48.782Z,19.95
2023-01-19T02:25:20.212Z,19.61
2023-01-19T02:27:50.296Z,19.84
2023-01-19T02:30:19.205Z,19.67
2023-01-19T02:32:47.333Z,19.52
2023-01-19T02:35:15.706Z,19.78
2023-01-19T02:37:45.673Z,19.83
2023-01-19T02:40:16.542Z,19.84
2023-01-19T02:42:50.066Z,19.84
2023-01-19T02:45:22.929Z,19.68
2023-01-19T02:47:52.589Z,19.87
2023-01-19T02:50:41.451Z,19.90
2023-01-19T02:53:34.165Z,19.86
2023-01-19T02:56:14.074Z,19.79
2023-01-19T02:58:49.229Z,19.48
2023-01-19T03:01:26.203Z,19.43
2023-01-19T03:04:00.770Z,19.70
2023-01-19T03:06:37.882Z,19.42
2023-01-19T03:09:13.218Z,19.48
2023-01-19T03:11:47.795Z,19.69
2023-01-19T03:14:23.467Z,19.65
2023-01-19T03:16:55.213Z,19.36
2023-01-19T03:19:27.145Z,19.31
2023-01-19T03:21:59.034Z,19.30
2023-01-19T03:24:31.525Z,19.75
2023-01-19T03:27:04.079Z,19.73
2023-01-19T03:29:36.116Z,19.34
2023-01-19T03:32:09.139Z,19.33
2023-01-19T03:34:39.440Z,19.26
2023-01-19T03:37:11.439Z,19.60
2023-01-19T03:39:39.438Z,19.44
2023-01-19T03:42:11.680Z,19.48
2023-01-19T03:44:43.195Z,19.72
2023-01-19T03:47:12.858Z,19.33
2023-01-19T03:49:45.102Z,19.76
2023-01-19T03:52:14.222Z,19.47
2023-01-19T03:54:42.153Z,19.75
2023-01-19T03:57:10.323Z,19.37
2023-01-19T03:59:38.204Z,19.56
2023-01-19T04:02:07.607Z,19.46
2023-01-19T04:04:35.499Z,19.72
2023-01-19T04:07:03.447Z,19.87
2023-01-19T04:09:31.395Z,19.47
2023-01-19T04:12:01.592Z,19.60
2023-01-19T04:14:29.625Z,19.30
2023-01-19T04:16:57.632Z,19.83
2023-01-19T04:19:27.075Z,19.57
2023-01-19T04:21:55.699Z,19.79
2023-01-19T04:24:23.692Z,19.66
2023-01-19T04:26:53.413Z,19.54
2023-01-19T04:29:21.389Z,19.49
2023-01-19T04:31:49.330Z,19.40
2023-01-19T04:34:17.617Z,19.68
2023-01-19T04:36:46.970Z,19.71
2023-01-19T04:39:15.345Z,19.33
2023-01-19T04:41:43.477Z,19.22
2023-01-19T04:44:11.540Z,19.43
2023-01-19T04:46:39.554Z,19.71
2023-01-19T04:49:07.575Z,19.30
2023-01-19T04:51:35.757Z,19.21
2023-01-19T04:54:05.286Z,19.27
2023-01-19T04:56:33.217Z,19.33
2023-01-19T04:59:01.238Z,19.47
2023-01-19T05:01:29.415Z,19.76
2023-01-19T05:04:00.932Z,19.85
2023-01-19T05:06:28.897Z,19.27
2023-01-19T05:08:56.825Z,19.87
2023-01-19T05:11:26.365Z,19.53
2023-01-19T05:13:54.463Z,19.34
2023-01-19T05:16:22.442Z,19.64
2023-01-19T05:18:50.589Z,19.41
2023-01-19T05:21:18.511Z,19.68
2023-01-19T05:23:46.504Z,19.63
2023-01-19T05:26:14.594Z,19.46
2023-01-19T05:28:43.940Z,19.59
2023-01-19T05:31:11.990Z,19.71
2023-01-19T05:33:40.012Z,19.66
2023-01-19T05:36:08.451Z,19.68
2023-01-19T05:38:36.495Z,19.60
2023-01-19T05:41:04.742Z,19.74
2023-01-19T05:43:32.751Z,19.85
2023-01-19T05:46:02.176Z,19.61
2023-01-19T05:48:30.083Z,19.92
2023-01-19T05:51:01.383Z,19.44
2023-01-19T05:53:30.007Z,19.80
2023-01-19T05:56:01.355Z,19.81
2023-01-19T05:58:29.873Z,19.63
2023-01-19T06:00:58.228Z,19.89
2023-01-19T06:03:27.701Z,19.70
2023-01-19T06:05:58.793Z,20.06
2023-01-19T06:08:27.074Z,19.97
2023-01-19T06:10:55.033Z,20.08
2023-01-19T06:13:22.960Z,19.84
2023-01-19T06:15:56.922Z,19.69
2023-01-19T06:18:24.947Z,19.73
2023-01-19T06:20:58.895Z,19.82
2023-01-19T06:23:26.965Z,20.10
2023-01-19T06:25:54.986Z,19.95
2023-01-19T06:28:23.209Z,19.73
2023-01-19T06:30:52.041Z,19.77
2023-01-19T06:33:20.715Z,20.13
2023-01-19T06:35:50.764Z,19.68
2023-01-19T06:38:20.235Z,19.65
2023-01-19T06:40:53.848Z,19.66
2023-01-19T06:43:22.138Z,19.78
2023-01-19T06:45:50.248Z,20.01
2023-01-19T06:48:19.032Z,20.08
2023-01-19T06:50:47.640Z,19.78
2023-01-19T06:53:16.691Z,19.96
2023-01-19T06:55:46.054Z,19.95
2023-01-19T06:58:14.193Z,19.86
2023-01-19T07:00:43.005Z,19.56
2023-01-19T07:03:20.660Z,19.55
2023-01-19T07:05:51.962Z,19.66
2023-01-19T07:08:20.076Z,19.64
2023-01-19T07:11:25.880Z,19.54
2023-01-19T07:13:39.406Z,19.86
2023-01-19T07:16:09.063Z,19.99
2023-01-19T07:18:37.225Z,19.99
2023-01-19T07:21:05.842Z,19.52
2023-01-19T07:23:34.875Z,19.48
2023-01-19T07:26:04.470Z,19.55
2023-01-19T07:28:33.015Z,19.82
2023-01-19T07:31:01.192Z,19.92
2023-01-19T07:33:29.877Z,19.77
2023-01-19T07:35:57.864Z,19.46
2023-01-19T07:38:25.857Z,19.76
2023-01-19T07:40:53.797Z,19.61
2023-01-19T07:43:23.212Z,19.87
2023-01-19T07:45:51.893Z,19.48
2023-01-19T07:48:19.880Z,19.53
2023-01-19T07:50:47.882Z,19.89
2023-01-19T07:53:16.806Z,19.51
2023-01-19T07:55:44.786Z,19.60
2023-01-19T07:58:12.858Z,19.84
2023-01-19T08:00:42.215Z,20.21
2023-01-19T08:03:11.215Z,20.58
2023-01-19T08:05:39.643Z,20.24
2023-01-19T08:08:07.694Z,20.48
2023-01-19T08:10:35.705Z,20.12
2023-01-19T08:13:04.059Z,20.15
2023-01-19T08:15:32.087Z,19.76
2023-01-19T08:18:05.602Z,19.89
2023-01-19T08:20:33.763Z,20.18
2023-01-19T08:23:03.089Z,19.83
2023-01-19T08:25:34.696Z,19.92
2023-01-19T08:28:03.327Z,19.76
2023-01-19T08:30:31.404Z,19.76
2023-01-19T08:33:04.212Z,19.86
2023-01-19T08:35:35.014Z,19.87
2023-01-19T08:38:02.933Z,20.05
2023-01-19T08:40:31.260Z,19.96
2023-01-19T08:43:03.749Z,19.78
2023-01-19T08:45:32.405Z,20.06
2023-01-19T08:48:00.341Z,19.77
2023-01-19T08:50:28.357Z,19.98
2023-01-19T08:52:59.485Z,19.92
2023-01-19T08:55:28.373Z,19.84
2023-01-19T08:58:00.160Z,19.95
2023-01-19T09:00:31.615Z,20.15
2023-01-19T09:02:59.915Z,20.04
2023-01-19T09:05:28.229Z,20.30
2023-01-19T09:07:56.141Z,20.46
2023-01-19T09:10:25.541Z,20.32
2023-01-19T09:12:53.537Z,20.26
2023-01-19T09:15:21.565Z,20.03
2023-01-19T09:17:49.522Z,20.19
2023-01-19T09:20:17.479Z,20.17
2023-01-19T09:22:47.585Z,20.30
2023-01-19T09:25:15.693Z,20.76
2023-01-19T09:27:44.938Z,20.30
2023-01-19T09:30:14.125Z,20.00
2023-01-19T09:32:42.916Z,20.49
2023-01-19T09:35:11.108Z,20.09
2023-01-19T09:37:39.110Z,20.45
2023-01-19T09:40:09.982Z,20.31
2023-01-19T09:42:43.644Z,20.11
2023-01-19T09:45:20.089Z,20.45
2023-01-19T09:47:50.780Z,20.35
2023-01-19T09:50:24.930Z,20.61
2023-01-19T09:53:01.381Z,20.71
2023-01-19T09:55:29.769Z,20.84
2023-01-19T09:57:58.133Z,21.50
2023-01-19T10:00:31.580Z,20.77
2023-01-19T10:03:10.666Z,20.67
2023-01-19T10:05:45.954Z,20.28
2023-01-19T10:08:21.598Z,20.13
2023-01-19T10:10:54.034Z,20.14
2023-01-19T10:13:34.536Z,19.90
2023-01-19T10:16:14.377Z,20.21
2023-01-19T10:18:47.590Z,19.83
2023-01-19T10:21:22.387Z,20.16
2023-01-19T10:23:53.286Z,19.70
2023-01-19T10:26:25.756Z,20.05
2023-01-19T10:28:57.505Z,19.57
2023-01-19T10:31:27.192Z,19.73
2023-01-19T10:33:55.352Z,19.80
2023-01-19T10:36:31.122Z,19.85
2023-01-19T10:38:59.337Z,19.46
2023-01-19T10:41:32.886Z,19.84
2023-01-19T10:44:02.586Z,19.40
2023-01-19T10:46:38.591Z,19.49
2023-01-19T10:49:07.487Z,19.74
2023-01-19T10:51:35.715Z,19.73
2023-01-19T10:54:05.579Z,19.80
2023-01-19T10:56:36.579Z,19.84
2023-01-19T10:59:06.620Z,19.61
2023-01-19T11:01:38.118Z,19.84
2023-01-19T11:04:28.260Z,19.76
2023-01-19T11:07:14.052Z,19.41
2023-01-19T11:09:42.125Z,19.84
2023-01-19T11:12:18.579Z,19.76
2023-01-19T11:14:48.105Z,19.82
2023-01-19T11:17:23.528Z,19.29
2023-01-19T11:19:57.487Z,19.34
2023-01-19T11:22:29.319Z,19.54
2023-01-19T11:25:02.288Z,19.56
2023-01-19T11:27:32.469Z,19.39
2023-01-19T11:30:09.802Z,19.21
2023-01-19T11:32:39.349Z,19.44
2023-01-19T11:35:39.629Z,19.57
2023-01-19T11:38:15.280Z,19.68
2023-01-19T11:40:48.381Z,19.33
2023-01-19T11:43:16.539Z,19.28
2023-01-19T11:45:46.225Z,19.70
2023-01-19T11:48:28.453Z,19.76
2023-01-19T11:50:58.327Z,19.60
2023-01-19T11:53:29.217Z,19.62
2023-01-19T11:56:00.714Z,19.87
2023-01-19T11:58:28.782Z,20.16
2023-01-19T12:01:01.765Z,20.32
2023-01-19T12:03:34.017Z,20.72
2023-01-19T12:06:08.035Z,21.11
2023-01-19T12:08:38.567Z,21.18
2023-01-19T12:11:09.938Z,21.10
2023-01-19T12:13:38.609Z,21.03
2023-01-19T12:16:11.677Z,20.79
2023-01-19T12:18:45.829Z,20.94
2023-01-19T12:21:14.059Z,20.71
2023-01-19T12:23:49.385Z,20.94
2023-01-19T12:26:37.760Z,20.35
2023-01-19T12:29:13.778Z,20.79
2023-01-19T12:31:42.987Z,20.77
2023-01-19T12:34:41.610Z,20.50
2023-01-19T12:37:34.638Z,20.87
2023-01-19T12:40:06.653Z,20.57
2023-01-19T12:42:35.176Z,20.63
2023-01-19T12:45:09.162Z,20.41
2023-01-19T12:47:38.326Z,20.23
2023-01-19T12:50:15.027Z,20.52
2023-01-19T12:52:51.548Z,20.32
2023-01-19T12:55:24.204Z,20.28
2023-01-19T12:57:58.041Z,20.51
2023-01-19T13:00:38.064Z,20.23
2023-01-19T13:03:45.447Z,20.38
2023-01-19T13:06:14.873Z,20.36
2023-01-19T13:09:29.047Z,20.17
2023-01-19T13:12:22.857Z,20.24
2023-01-19T13:14:51.775Z,20.17
2023-01-19T13:17:50.646Z,20.24
2023-01-19T13:20:28.579Z,20.26
2023-01-19T13:23:19.713Z,20.10
2023-01-19T13:25:54.357Z,20.22
2023-01-19T13:28:31.862Z,20.00
2023-01-19T13:31:03.318Z,20.26
2023-01-19T13:33:41.057Z,19.82
2023-01-19T13:36:20.608Z,20.22
2023-01-19T13:38:52.277Z,20.20
2023-01-19T13:41:25.029Z,20.18
2023-01-19T13:44:00.339Z,19.73
2023-01-19T13:46:30.139Z,20.00
2023-01-19T13:49:00.906Z,19.92
2023-01-19T13:51:28.882Z,19.79
2023-01-19T13:53:59.738Z,19.92
2023-01-19T13:56:28.995Z,19.74
2023-01-19T13:59:09.961Z,19.57
2023-01-19T14:01:39.724Z,19.82
2023-01-19T14:04:08.024Z,19.65
2023-01-19T14:06:40.511Z,19.65
2023-01-19T14:09:20.450Z,20.21
2023-01-19T14:12:05.568Z,20.93
2023-01-19T14:14:34.170Z,21.33
2023-01-19T14:17:02.121Z,21.92
2023-01-19T14:19:30.290Z,23.06
2023-01-19T14:22:03.225Z,25.15
2023-01-19T14:24:33.383Z,26.43
2023-01-19T14:27:22.835Z,27.64
2023-01-19T14:29:53.782Z,29.02
2023-01-19T14:32:24.373Z,29.89
2023-01-19T14:34:54.042Z,30.31
2023-01-19T14:37:25.233Z,30.98
2023-01-19T14:39:59.239Z,30.75
2023-01-19T14:42:29.665Z,30.15
2023-01-19T14:45:01.025Z,29.31
2023-01-19T14:47:34.899Z,27.77
2023-01-19T14:50:10.893Z,27.04
2023-01-19T14:52:42.232Z,26.50
2023-01-19T14:55:21.823Z,25.40
2023-01-19T14:57:50.005Z,24.77
2023-01-19T15:00:20.068Z,24.64
2023-01-19T15:02:48.396Z,24.02
2023-01-19T15:05:16.894Z,24.16
2023-01-19T15:07:46.569Z,23.54
2023-01-19T15:10:21.741Z,23.26
2023-01-19T15:12:50.852Z,23.28
2023-01-19T15:15:22.651Z,23.07
2023-01-19T15:17:51.644Z,22.91
2023-01-19T15:20:21.872Z,22.95
2023-01-19T15:22:50.454Z,22.30
2023-01-19T15:25:22.292Z,22.38
2023-01-19T15:27:50.384Z,22.13
2023-01-19T15:30:21.646Z,22.45
2023-01-19T15:32:49.684Z,22.42
2023-01-19T15:35:20.055Z,22.38
2023-01-19T15:37:48.823Z,21.84
2023-01-19T15:40:18.636Z,22.15
2023-01-19T15:42:48.150Z,21.89
2023-01-19T15:45:34.859Z,21.83
2023-01-19T15:48:04.972Z,21.66
2023-01-19T15:50:34.110Z,22.12
2023-01-19T15:53:02.172Z,21.94
2023-01-19T15:55:30.202Z,22.14
2023-01-19T15:58:01.655Z,22.29
2023-01-19T16:00:30.959Z,22.37
2023-01-19T16:02:59.897Z,22.38
2023-01-19T16:05:41.926Z,22.40
2023-01-19T16:08:10.561Z,22.80
2023-01-19T16:10:38.965Z,22.78
2023-01-19T16:13:08.678Z,22.54
2023-01-19T16:15:37.628Z,22.38
2023-01-19T16:18:06.621Z,22.48
2023-01-19T16:20:34.838Z,22.45
2023-01-19T16:23:14.591Z,22.67
2023-01-19T16:25:43.360Z,22.60
2023-01-19T16:28:12.828Z,22.71
2023-01-19T16:30:41.034Z,22.59
2023-01-19T16:33:11.650Z,22.58
2023-01-19T16:35:39.736Z,22.53
2023-01-19T16:38:09.387Z,22.17
2023-01-19T16:40:37.992Z,22.51
2023-01-19T16:43:06.041Z,22.15
2023-01-19T16:45:35.582Z,22.79
2023-01-19T16:48:03.621Z,22.13
2023-01-19T16:50:31.740Z,22.16
2023-01-19T16:53:00.151Z,22.22
2023-01-19T16:55:28.147Z,22.30
2023-01-19T16:57:56.744Z,21.94
2023-01-19T17:00:24.955Z,22.34
2023-01-19T17:02:54.273Z,22.43
2023-01-19T17:05:22.414Z,22.06
2023-01-19T17:07:50.443Z,22.27
2023-01-19T17:10:18.518Z,22.17
2023-01-19T17:12:46.591Z,22.04
2023-01-19T17:15:15.095Z,22.39
2023-01-19T17:17:43.152Z,21.96
2023-01-19T17:20:13.572Z,21.89
2023-01-19T17:22:41.786Z,22.00
2023-01-19T17:25:10.325Z,21.79
2023-01-19T17:27:38.412Z,21.84
2023-01-19T17:30:07.059Z,21.36
2023-01-19T17:32:35.767Z,21.19
2023-01-19T17:35:03.842Z,21.49
2023-01-19T17:37:33.198Z,21.31
2023-01-19T17:40:01.265Z,21.11
2023-01-19T17:42:29.214Z,21.06
2023-01-19T17:44:57.118Z,21.25
2023-01-19T17:47:26.095Z,21.26
2023-01-19T17:49:54.077Z,20.92
2023-01-19T17:52:22.261Z,20.85
2023-01-19T17:54:51.649Z,21.18
2023-01-19T17:57:19.745Z,20.76
2023-01-19T17:59:48.260Z,20.79
2023-01-19T18:02:16.407Z,21.11
2023-01-19T18:04:44.622Z,20.65
2023-01-19T18:07:12.632Z,21.08
2023-01-19T18:09:40.594Z,20.79
2023-01-19T18:12:10.002Z,21.27
2023-01-19T18:14:38.734Z,21.41
2023-01-19T18:17:06.670Z,21.11
2023-01-19T18:19:34.608Z,21.11
2023-01-19T18:22:03.294Z,21.24
2023-01-19T18:24:31.355Z,21.04
2023-01-19T18:26:59.323Z,20.67
2023-01-19T18:29:28.837Z,20.52
2023-01-19T18:31:56.886Z,20.78
2023-01-19T18:34:24.869Z,20.48
2023-01-19T18:36:52.883Z,20.71
2023-01-19T18:39:21.189Z,20.41
2023-01-19T18:41:49.141Z,20.61
2023-01-19T18:44:17.000Z,20.72
2023-01-19T18:46:46.479Z,20.69
2023-01-19T18:49:14.485Z,20.52
2023-01-19T18:51:42.505Z,21.24
2023-01-19T18:54:11.980Z,20.81
2023-01-19T18:56:39.970Z,21.03
2023-01-19T18:59:07.949Z,21.08
2023-01-19T19:01:36.483Z,20.83
2023-01-19T19:04:08.146Z,21.04
2023-01-19T19:06:36.366Z,21.30
2023-01-19T19:09:05.228Z,21.01
2023-01-19T19:11:33.236Z,21.18
2023-01-19T19:14:03.273Z,21.60
2023-01-19T19:16:34.932Z,21.57
2023-01-19T19:19:05.204Z,21.79
2023-01-19T19:21:33.191Z,21.97
2023-01-19T19:24:01.193Z,21.70
2023-01-19T19:26:30.010Z,22.04
2023-01-19T19:28:58.207Z,21.98
2023-01-19T19:31:27.630Z,21.41
2023-01-19T19:33:56.983Z,21.90
2023-01-19T19:36:28.503Z,21.59
2023-01-19T19:38:56.541Z,21.72
2023-01-19T19:41:26.997Z,21.78
2023-01-19T19:43:55.642Z,21.36
2023-01-19T19:46:25.134Z,21.69
2023-01-19T19:48:53.467Z,21.63
2023-01-19T19:51:23.512Z,21.83
2023-01-19T19:53:54.047Z,21.56
2023-01-19T19:56:24.632Z,21.68
2023-01-19T19:58:55.053Z,21.40
2023-01-19T20:01:27.180Z,21.59
2023-01-19T20:03:56.117Z,21.53
2023-01-19T20:06:26.165Z,21.36
2023-01-19T20:08:57.156Z,21.92
2023-01-19T20:11:28.207Z,21.80
2023-01-19T20:13:56.389Z,21.33
2023-01-19T20:16:25.159Z,21.69
2023-01-19T20:18:55.200Z,21.73
2023-01-19T20:21:25.965Z,21.80
2023-01-19T20:23:57.291Z,21.77
2023-01-19T20:26:27.968Z,21.24
2023-01-19T20:28:59.701Z,21.29
2023-01-19T20:31:30.278Z,21.14
2023-01-19T20:34:01.230Z,21.58
2023-01-19T20:36:29.590Z,21.46
2023-01-19T20:38:59.401Z,21.28
2023-01-19T20:41:28.079Z,21.19
2023-01-19T20:43:56.096Z,21.49
2023-01-19T20:46:24.201Z,21.51
2023-01-19T20:48:54.638Z,21.12
2023-01-19T20:51:23.086Z,21.32
2023-01-19T20:53:51.147Z,21.21
2023-01-19T20:56:20.556Z,21.24
2023-01-19T20:58:48.429Z,21.46
2023-01-19T21:01:19.392Z,21.21
2023-01-19T21:03:47.896Z,21.49
2023-01-19T21:06:16.543Z,21.23
2023-01-19T21:08:44.823Z,21.48
2023-01-19T21:11:13.381Z,21.50
2023-01-19T21:13:42.816Z,21.03
2023-01-19T21:16:10.871Z,21.05
2023-01-19T21:18:38.962Z,21.02
2023-01-19T21:21:10.665Z,20.99
2023-01-19T21:23:44.542Z,21.28
2023-01-19T21:26:13.116Z,21.01
2023-01-19T21:28:42.970Z,21.31
2023-01-19T21:31:12.917Z,21.25
2023-01-19T21:33:41.261Z,20.91
2023-01-19T21:36:10.933Z,21.21
2023-01-19T21:38:40.111Z,20.72
2023-01-19T21:41:11.725Z,20.81
2023-01-19T21:43:41.835Z,21.02
2023-01-19T21:46:12.711Z,21.05
2023-01-19T21:48:40.771Z,20.77
2023-01-19T21:51:09.260Z,21.08
2023-01-19T21:53:37.262Z,21.02
2023-01-19T21:56:07.785Z,21.17
2023-01-19T21:58:35.804Z,21.00
2023-01-19T22:01:05.331Z,21.19
2023-01-19T22:03:34.686Z,20.71
2023-01-19T22:06:05.877Z,20.95
2023-01-19T22:08:33.983Z,20.74
2023-01-19T22:11:05.286Z,21.33
2023-01-19T22:13:33.726Z,20.78
2023-01-19T22:16:02.275Z,21.23
2023-01-19T22:18:30.316Z,21.40
2023-01-19T22:21:08.115Z,21.34
2023-01-19T22:23:36.636Z,21.26
2023-01-19T22:26:05.436Z,21.36
2023-01-19T22:28:34.306Z,21.20
2023-01-19T22:31:07.217Z,21.27
2023-01-19T22:33:35.863Z,21.51
2023-01-19T22:36:17.143Z,21.55
2023-01-19T22:38:45.751Z,21.36
2023-01-19T22:41:18.566Z,21.61
2023-01-19T22:43:47.218Z,21.68
2023-01-19T22:46:18.908Z,21.61
2023-01-19T22:48:47.437Z,21.78
2023-01-19T22:51:17.602Z,21.53
2023-01-19T22:53:45.663Z,21.74
2023-01-19T22:56:15.715Z,21.62
2023-01-19T22:58:45.124Z,21.28
2023-01-19T23:01:14.868Z,21.46
2023-01-19T23:03:43.460Z,21.58
2023-01-19T23:06:13.638Z,21.66
2023-01-19T23:08:43.434Z,20.98
2023-01-19T23:11:13.837Z,20.85
2023-01-19T23:13:42.119Z,20.86
2023-01-19T23:16:10.606Z,21.03
2023-01-19T23:18:39.106Z,21.46
2023-01-19T23:21:09.047Z,21.47
2023-01-19T23:23:37.456Z,21.55
2023-01-19T23:26:08.384Z,21.28
2023-01-19T23:28:36.818Z,21.07
2023-01-19T23:31:15.067Z,20.92
2023-01-19T23:33:44.232Z,21.00
2023-01-19T23:36:12.974Z,21.31
2023-01-19T23:38:41.596Z,21.32
2023-01-19T23:41:10.957Z,20.91
2023-01-19T23:43:39.064Z,21.49
2023-01-19T23:46:08.681Z,21.00
2023-01-19T23:48:37.585Z,21.08
2023-01-19T23:51:07.601Z,21.16
2023-01-19T23:53:35.933Z,20.95
2023-01-19T23:56:11.875Z,20.56
2023-01-19T23:58:40.520Z,20.57
